createdAt,value
2018-11-07T00:01:24.222Z,19.30
2018-11-07T00:03:52.600Z,20.27
2018-11-07T00:06:20.993Z,19.80
2018-11-07T00:08:49.371Z,18.43
2018-11-07T00:11:17.771Z,23.40
2018-11-07T00:13:46.186Z,27.30
2018-11-07T00:16:14.606Z,25.80
2018-11-07T00:18:43.074Z,23.90
2018-11-07T00:21:11.466Z,23.57
2018-11-07T00:23:39.846Z,17.93
2018-11-07T00:26:08.258Z,23.00
2018-11-07T00:28:36.639Z,23.07
2018-11-07T00:31:05.040Z,22.50
2018-11-07T00:33:33.415Z,20.50
2018-11-07T00:36:01.814Z,20.60
2018-11-07T00:38:30.185Z,18.33
2018-11-07T00:40:58.611Z,19.27
2018-11-07T00:43:26.982Z,19.97
2018-11-07T00:45:55.379Z,20.23
2018-11-07T00:48:23.758Z,19.27
2018-11-07T00:50:52.163Z,18.33
2018-11-07T00:53:20.553Z,17.13
2018-11-07T00:55:48.949Z,17.97
2018-11-07T00:58:17.315Z,18.97
2018-11-07T01:00:45.711Z,20.27
2018-11-07T01:03:14.095Z,19.50
2018-11-07T01:05:42.510Z,19.83
2018-11-07T01:08:10.890Z,19.57
2018-11-07T01:10:39.662Z,18.73
2018-11-07T01:13:08.061Z,19.70
2018-11-07T01:15:36.434Z,21.23
2018-11-07T01:18:05.250Z,20.77
2018-11-07T01:20:33.617Z,20.10
2018-11-07T01:23:02.044Z,21.70
2018-11-07T01:25:30.418Z,20.60
2018-11-07T01:27:58.851Z,22.40
2018-11-07T01:30:27.219Z,21.60
2018-11-07T01:32:55.610Z,29.73
2018-11-07T01:35:23.989Z,35.40
2018-11-07T01:37:52.382Z,52.00
2018-11-07T01:40:20.753Z,51.27
2018-11-07T01:42:49.179Z,54.70
2018-11-07T01:45:17.562Z,64.13
2018-11-07T01:47:45.962Z,78.47
2018-11-07T01:50:14.538Z,64.07
2018-11-07T01:52:42.938Z,53.73
2018-11-07T01:55:11.511Z,43.73
2018-11-07T01:57:39.922Z,31.17
2018-11-07T02:00:10.618Z,27.67
2018-11-07T02:02:39.129Z,26.40
2018-11-07T02:05:07.885Z,24.57
2018-11-07T02:07:36.281Z,29.60
2018-11-07T02:10:05.706Z,28.33
2018-11-07T02:12:34.182Z,39.57
2018-11-07T02:15:02.844Z,39.40
2018-11-07T02:17:31.243Z,42.33
2018-11-07T02:19:59.621Z,46.60
2018-11-07T02:22:28.024Z,49.00
2018-11-07T02:24:56.407Z,47.13
2018-11-07T02:27:24.806Z,54.83
2018-11-07T02:29:53.270Z,41.83
2018-11-07T02:32:21.666Z,45.20
2018-11-07T02:34:50.038Z,55.03
2018-11-07T02:37:18.439Z,31.03
2018-11-07T02:39:46.818Z,38.87
2018-11-07T02:42:15.234Z,33.57
2018-11-07T02:44:43.610Z,37.27
2018-11-07T02:47:12.009Z,36.90
2018-11-07T02:49:40.384Z,34.03
2018-11-07T02:52:08.783Z,41.13
2018-11-07T02:54:37.154Z,34.30
2018-11-07T02:57:05.649Z,33.47
2018-11-07T02:59:34.035Z,29.17
2018-11-07T03:02:02.426Z,24.03
2018-11-07T03:04:30.806Z,24.10
2018-11-07T03:06:59.222Z,23.57
2018-11-07T03:09:27.594Z,23.60
2018-11-07T03:11:55.962Z,26.20
2018-11-07T03:14:24.846Z,26.63
2018-11-07T03:16:53.211Z,23.37
2018-11-07T03:19:21.607Z,22.30
2018-11-07T03:21:49.978Z,23.63
2018-11-07T03:24:18.371Z,22.17
2018-11-07T03:26:46.745Z,21.40
2018-11-07T03:29:15.142Z,21.30
2018-11-07T03:31:43.506Z,21.30
2018-11-07T03:34:11.902Z,22.43
2018-11-07T03:36:40.273Z,23.17
2018-11-07T03:39:10.230Z,23.60
2018-11-07T03:41:38.899Z,28.30
2018-11-07T03:44:08.125Z,26.37
2018-11-07T03:46:36.526Z,29.40
2018-11-07T03:49:05.314Z,27.00
2018-11-07T03:51:33.681Z,25.40
2018-11-07T03:54:02.112Z,28.30
2018-11-07T03:56:30.491Z,30.77
2018-11-07T03:58:58.886Z,35.53
2018-11-07T04:01:27.258Z,31.27
2018-11-07T04:03:55.652Z,35.40
2018-11-07T04:06:24.038Z,28.87
2018-11-07T04:08:52.455Z,26.20
2018-11-07T04:11:20.868Z,30.47
2018-11-07T04:13:49.282Z,31.67
2018-11-07T04:16:17.652Z,28.07
2018-11-07T04:18:46.117Z,28.33
2018-11-07T04:21:14.643Z,26.27
2018-11-07T04:23:47.426Z,27.33
2018-11-07T04:26:15.810Z,25.43
2018-11-07T04:28:44.215Z,25.70
2018-11-07T04:31:12.603Z,25.40
2018-11-07T04:33:41.001Z,24.83
2018-11-07T04:36:09.394Z,25.90
2018-11-07T04:38:37.794Z,25.17
2018-11-07T04:41:06.473Z,33.10
2018-11-07T04:43:34.863Z,36.30
2018-11-07T04:46:03.239Z,34.47
2018-11-07T04:48:31.631Z,41.93
2018-11-07T04:50:59.998Z,40.90
2018-11-07T04:53:28.390Z,36.20
2018-11-07T04:55:56.762Z,30.23
2018-11-07T04:58:25.154Z,29.60
2018-11-07T05:00:53.522Z,28.07
2018-11-07T05:03:21.913Z,28.50
2018-11-07T05:05:50.319Z,29.73
2018-11-07T05:08:18.827Z,29.50
2018-11-07T05:10:47.206Z,26.07
2018-11-07T05:13:15.574Z,28.43
2018-11-07T05:15:43.970Z,27.60
2018-11-07T05:18:12.346Z,29.43
2018-11-07T05:20:40.734Z,29.07
2018-11-07T05:23:09.108Z,27.30
2018-11-07T05:25:37.798Z,29.07
2018-11-07T05:28:06.286Z,26.87
2018-11-07T05:30:34.797Z,31.53
2018-11-07T05:33:03.175Z,28.57
2018-11-07T05:35:31.571Z,30.60
2018-11-07T05:37:59.942Z,29.80
2018-11-07T05:40:28.513Z,28.43
2018-11-07T05:42:56.903Z,33.03
2018-11-07T05:45:25.342Z,36.00
2018-11-07T05:47:53.712Z,39.90
2018-11-07T05:50:22.107Z,32.20
2018-11-07T05:52:50.483Z,39.57
2018-11-07T05:55:18.882Z,40.70
2018-11-07T05:57:47.250Z,41.60
2018-11-07T06:00:15.658Z,36.87
2018-11-07T06:02:44.026Z,41.80
2018-11-07T06:05:12.828Z,33.80
2018-11-07T06:07:41.486Z,34.27
2018-11-07T06:10:11.939Z,34.50
2018-11-07T06:12:40.701Z,29.50
2018-11-07T06:15:10.342Z,30.50
2018-11-07T06:17:38.710Z,28.77
2018-11-07T06:20:08.021Z,30.23
2018-11-07T06:22:36.578Z,30.87
2018-11-07T06:25:05.335Z,32.53
2018-11-07T06:27:33.722Z,29.30
2018-11-07T06:30:02.364Z,30.60
2018-11-07T06:32:30.758Z,29.93
2018-11-07T06:34:59.149Z,30.27
2018-11-07T06:37:27.520Z,30.77
2018-11-07T06:39:55.917Z,33.63
2018-11-07T06:42:24.343Z,33.43
2018-11-07T06:44:53.148Z,32.50
2018-11-07T06:47:21.524Z,36.10
2018-11-07T06:49:49.918Z,32.90
2018-11-07T06:52:18.309Z,34.37
2018-11-07T06:54:47.001Z,34.77
2018-11-07T06:57:15.689Z,32.80
2018-11-07T06:59:44.234Z,29.00
2018-11-07T07:02:12.606Z,26.47
2018-11-07T07:04:41.006Z,27.43
2018-11-07T07:07:09.380Z,26.70
2018-11-07T07:09:37.778Z,27.03
2018-11-07T07:12:06.207Z,28.90
2018-11-07T07:14:34.674Z,32.30
2018-11-07T07:17:03.346Z,27.67
2018-11-07T07:19:31.774Z,34.00
2018-11-07T07:22:00.139Z,37.13
2018-11-07T07:24:28.506Z,31.97
2018-11-07T07:26:56.898Z,35.10
2018-11-07T07:29:25.269Z,37.97
2018-11-07T07:31:53.669Z,36.70
2018-11-07T07:34:23.710Z,53.67
2018-11-07T07:36:52.105Z,45.10
2018-11-07T07:39:20.479Z,48.30
2018-11-07T07:41:48.890Z,48.00
2018-11-07T07:44:17.271Z,47.07
2018-11-07T07:46:45.676Z,46.27
2018-11-07T07:49:14.081Z,47.50
2018-11-07T07:51:42.495Z,49.80
2018-11-07T07:54:10.874Z,45.60
2018-11-07T07:56:39.270Z,49.87
2018-11-07T07:59:07.648Z,46.37
2018-11-07T08:01:36.047Z,47.33
2018-11-07T08:04:04.444Z,47.80
2018-11-07T08:06:35.450Z,47.47
2018-11-07T08:09:04.756Z,47.93
2018-11-07T08:11:33.151Z,46.90
2018-11-07T08:14:01.571Z,48.10
2018-11-07T08:16:29.954Z,48.03
2018-11-07T08:18:58.322Z,46.50
2018-11-07T08:21:26.778Z,44.90
2018-11-07T08:23:55.123Z,48.90
2018-11-07T08:26:23.519Z,49.00
2018-11-07T08:28:51.882Z,45.70
2018-11-07T08:31:20.283Z,47.70
2018-11-07T08:33:48.655Z,48.73
2018-11-07T08:36:17.062Z,45.77
2018-11-07T08:38:45.431Z,44.60
2018-11-07T08:41:13.846Z,44.97
2018-11-07T08:43:42.218Z,44.57
2018-11-07T08:46:10.610Z,42.17
2018-11-07T08:48:38.981Z,45.57
2018-11-07T08:51:07.378Z,43.40
2018-11-07T08:53:35.747Z,44.37
2018-11-07T08:56:04.140Z,39.90
2018-11-07T08:58:32.515Z,44.57
2018-11-07T09:01:00.918Z,44.60
2018-11-07T09:03:29.296Z,42.73
2018-11-07T09:05:57.691Z,40.80
2018-11-07T09:08:26.074Z,42.60
2018-11-07T09:10:54.478Z,43.73
2018-11-07T09:13:22.871Z,41.27
2018-11-07T09:15:51.250Z,42.67
2018-11-07T09:18:19.658Z,43.60
2018-11-07T09:20:48.030Z,37.77
2018-11-07T09:23:16.450Z,43.57
2018-11-07T09:25:44.827Z,41.90
2018-11-07T09:28:13.218Z,41.13
2018-11-07T09:30:41.586Z,43.37
2018-11-07T09:33:09.994Z,43.30
2018-11-07T09:35:38.380Z,42.97
2018-11-07T09:38:06.814Z,41.23
2018-11-07T09:40:35.190Z,39.63
2018-11-07T09:43:03.612Z,40.90
2018-11-07T09:45:31.987Z,39.70
2018-11-07T09:48:00.398Z,47.70
2018-11-07T09:50:28.781Z,40.47
2018-11-07T09:52:57.174Z,41.57
2018-11-07T09:55:25.554Z,41.23
2018-11-07T09:57:53.951Z,39.57
2018-11-07T10:00:22.705Z,40.63
2018-11-07T10:02:51.102Z,40.57
2018-11-07T10:05:20.615Z,41.70
2018-11-07T10:07:49.016Z,43.67
2018-11-07T10:10:18.774Z,42.50
2018-11-07T10:12:47.452Z,40.27
2018-11-07T10:15:15.947Z,43.00
2018-11-07T10:17:44.350Z,43.27
2018-11-07T10:20:14.551Z,41.27
2018-11-07T10:22:43.666Z,41.87
2018-11-07T10:25:12.535Z,43.40
2018-11-07T10:27:41.400Z,43.80
2018-11-07T10:30:11.513Z,44.57
2018-11-07T10:32:40.092Z,43.60
2018-11-07T10:35:09.127Z,44.40
2018-11-07T10:37:37.531Z,41.37
2018-11-07T10:40:08.578Z,44.07
2018-11-07T10:42:37.016Z,44.73
2018-11-07T10:45:05.746Z,44.53
2018-11-07T10:47:34.138Z,43.20
2018-11-07T10:50:02.510Z,43.63
2018-11-07T10:52:30.923Z,43.10
2018-11-07T10:54:59.310Z,43.47
2018-11-07T10:57:27.710Z,43.60
2018-11-07T10:59:56.087Z,45.33
2018-11-07T11:02:29.910Z,44.40
2018-11-07T11:04:58.296Z,43.70
2018-11-07T11:07:26.895Z,43.40
2018-11-07T11:09:55.295Z,43.70
2018-11-07T11:12:23.970Z,44.73
2018-11-07T11:14:52.370Z,41.53
2018-11-07T11:17:20.780Z,45.37
2018-11-07T11:19:49.166Z,40.30
2018-11-07T11:22:17.546Z,45.43
2018-11-07T11:24:45.942Z,41.43
2018-11-07T11:27:14.378Z,42.43
2018-11-07T11:29:42.754Z,44.70
2018-11-07T11:32:11.131Z,41.80
2018-11-07T11:34:39.583Z,41.63
2018-11-07T11:37:07.935Z,44.37
2018-11-07T11:39:36.326Z,42.23
2018-11-07T11:42:05.035Z,43.33
2018-11-07T11:44:33.431Z,44.10
2018-11-07T11:47:01.810Z,45.00
2018-11-07T11:49:30.227Z,43.90
2018-11-07T11:51:58.595Z,44.90
2018-11-07T11:54:26.994Z,43.37
2018-11-07T11:56:55.468Z,42.33
2018-11-07T11:59:24.221Z,41.50
2018-11-07T12:01:52.357Z,46.47
2018-11-07T12:04:20.756Z,42.77
2018-11-07T12:06:49.128Z,43.00
2018-11-07T12:09:17.534Z,43.17
2018-11-07T12:11:45.991Z,43.27
2018-11-07T12:14:14.374Z,42.20
2018-11-07T12:16:42.757Z,43.30
2018-11-07T12:19:11.155Z,43.43
2018-11-07T12:21:39.526Z,44.23
2018-11-07T12:24:07.927Z,42.93
2018-11-07T12:26:36.319Z,42.53
2018-11-07T12:29:04.830Z,40.93
2018-11-07T12:31:33.231Z,39.87
2018-11-07T12:34:01.606Z,41.30
2018-11-07T12:36:30.069Z,41.87
2018-11-07T12:38:58.409Z,39.20
2018-11-07T12:41:26.830Z,40.47
2018-11-07T12:43:55.206Z,41.27
2018-11-07T12:46:23.599Z,42.00
2018-11-07T12:48:51.974Z,43.90
2018-11-07T12:51:20.374Z,40.30
2018-11-07T12:53:48.746Z,42.07
2018-11-07T12:56:17.142Z,40.10
2018-11-07T12:58:45.519Z,40.20
2018-11-07T13:01:13.953Z,40.80
2018-11-07T13:03:42.398Z,43.27
2018-11-07T13:06:10.805Z,40.00
2018-11-07T13:08:39.210Z,39.97
2018-11-07T13:11:07.668Z,40.43
2018-11-07T13:13:36.011Z,39.80
2018-11-07T13:16:04.619Z,40.43
2018-11-07T13:18:33.002Z,41.43
2018-11-07T13:21:01.407Z,39.00
2018-11-07T13:23:29.782Z,40.10
2018-11-07T13:25:58.178Z,38.63
2018-11-07T13:28:26.590Z,39.13
2018-11-07T13:30:54.975Z,38.80
2018-11-07T13:33:23.347Z,39.87
2018-11-07T13:35:51.751Z,40.80
2018-11-07T13:38:20.357Z,33.70
2018-11-07T13:40:48.587Z,39.43
2018-11-07T13:43:16.979Z,35.80
2018-11-07T13:45:45.432Z,41.17
2018-11-07T13:48:13.780Z,37.57
2018-11-07T13:50:42.178Z,36.53
2018-11-07T13:53:10.599Z,39.17
2018-11-07T13:55:38.979Z,37.33
2018-11-07T13:58:07.378Z,38.90
2018-11-07T14:00:35.782Z,38.73
2018-11-07T14:03:04.266Z,37.37
2018-11-07T14:05:32.675Z,39.43
2018-11-07T14:08:01.062Z,38.60
2018-11-07T14:10:29.462Z,39.67
2018-11-07T14:12:57.838Z,36.47
2018-11-07T14:15:26.241Z,37.87
2018-11-07T14:17:54.627Z,37.23
2018-11-07T14:20:23.003Z,35.30
2018-11-07T14:22:51.406Z,39.53
2018-11-07T14:25:19.789Z,37.40
2018-11-07T14:27:48.304Z,39.53
2018-11-07T14:30:18.094Z,37.80
2018-11-07T14:32:50.938Z,37.43
2018-11-07T14:35:19.337Z,35.07
2018-11-07T14:37:47.735Z,38.00
2018-11-07T14:40:16.201Z,36.57
2018-11-07T14:42:44.626Z,38.50
2018-11-07T14:45:13.187Z,39.67
2018-11-07T14:47:42.353Z,33.50
2018-11-07T14:50:11.478Z,37.60
2018-11-07T14:52:39.916Z,33.97
2018-11-07T14:55:08.857Z,37.40
2018-11-07T14:57:37.253Z,36.60
2018-11-07T15:00:09.131Z,40.23
2018-11-07T15:02:37.813Z,36.87
2018-11-07T15:05:07.494Z,37.57
2018-11-07T15:07:35.895Z,35.90
2018-11-07T15:10:04.346Z,36.67
2018-11-07T15:12:32.819Z,37.00
2018-11-07T15:15:01.194Z,39.83
2018-11-07T15:17:29.632Z,37.50
2018-11-07T15:19:58.006Z,37.20
2018-11-07T15:22:26.406Z,38.63
2018-11-07T15:24:54.801Z,40.60
2018-11-07T15:27:23.203Z,37.90
2018-11-07T15:29:51.586Z,41.00
2018-11-07T15:32:20.172Z,36.17
2018-11-07T15:34:48.534Z,39.70
2018-11-07T15:37:16.937Z,38.67
2018-11-07T15:39:45.310Z,41.83
2018-11-07T15:42:13.729Z,39.63
2018-11-07T15:44:42.103Z,37.90
2018-11-07T15:47:10.507Z,39.80
2018-11-07T15:49:41.811Z,39.50
2018-11-07T15:52:10.548Z,39.63
2018-11-07T15:54:38.930Z,37.60
2018-11-07T15:57:07.338Z,40.00
2018-11-07T15:59:35.706Z,44.90
2018-11-07T16:02:04.119Z,38.97
2018-11-07T16:04:32.491Z,41.20
2018-11-07T16:07:00.886Z,42.00
2018-11-07T16:09:29.262Z,39.00
2018-11-07T16:11:57.695Z,40.00
2018-11-07T16:14:26.147Z,38.00
2018-11-07T16:16:54.517Z,37.83
2018-11-07T16:19:22.898Z,44.43
2018-11-07T16:21:51.294Z,42.17
2018-11-07T16:24:19.682Z,41.50
2018-11-07T16:26:48.059Z,41.40
2018-11-07T16:29:16.463Z,44.20
2018-11-07T16:31:44.877Z,41.37
2018-11-07T16:34:13.271Z,42.87
2018-11-07T16:36:41.715Z,40.97
2018-11-07T16:39:11.069Z,40.10
2018-11-07T16:41:39.570Z,39.30
2018-11-07T16:44:07.890Z,36.90
2018-11-07T16:46:36.486Z,41.37
2018-11-07T16:49:04.895Z,47.00
2018-11-07T16:51:33.298Z,47.70
2018-11-07T16:54:02.057Z,48.83
2018-11-07T16:56:30.438Z,42.13
2018-11-07T16:58:58.860Z,38.60
2018-11-07T17:01:27.251Z,45.30
2018-11-07T17:03:55.654Z,47.67
2018-11-07T17:06:24.034Z,51.50
2018-11-07T17:08:52.438Z,52.77
2018-11-07T17:11:20.815Z,47.70
2018-11-07T17:13:49.222Z,40.27
2018-11-07T17:16:17.600Z,45.43
2018-11-07T17:18:46.003Z,37.67
2018-11-07T17:21:14.391Z,47.23
2018-11-07T17:23:42.796Z,63.27
2018-11-07T17:26:11.186Z,53.33
2018-11-07T17:28:39.588Z,52.20
2018-11-07T17:31:07.977Z,49.77
2018-11-07T17:33:36.379Z,49.90
2018-11-07T17:36:05.148Z,55.50
2018-11-07T17:38:33.614Z,54.13
2018-11-07T17:41:01.970Z,45.53
2018-11-07T17:43:30.582Z,51.90
2018-11-07T17:45:58.963Z,51.77
2018-11-07T17:48:27.421Z,51.90
2018-11-07T17:50:55.764Z,47.70
2018-11-07T17:53:24.150Z,41.37
2018-11-07T17:55:52.532Z,38.87
2018-11-07T17:58:20.926Z,46.80
2018-11-07T18:00:49.326Z,45.70
2018-11-07T18:03:17.730Z,51.40
2018-11-07T18:05:46.098Z,45.13
2018-11-07T18:08:14.506Z,55.47
2018-11-07T18:10:43.539Z,47.87
2018-11-07T18:13:11.934Z,47.23
2018-11-07T18:15:40.311Z,58.37
2018-11-07T18:18:08.728Z,59.13
2018-11-07T18:20:37.130Z,70.80
2018-11-07T18:23:05.990Z,56.37
2018-11-07T18:25:34.394Z,59.23
2018-11-07T18:28:02.778Z,56.80
2018-11-07T18:30:31.182Z,53.73
2018-11-07T18:33:04.877Z,51.97
2018-11-07T18:35:33.308Z,52.23
2018-11-07T18:38:01.714Z,53.57
2018-11-07T18:40:30.126Z,49.27
2018-11-07T18:42:58.537Z,50.80
2018-11-07T18:45:26.971Z,45.53
2018-11-07T18:47:55.355Z,49.30
2018-11-07T18:50:23.811Z,43.70
2018-11-07T18:52:52.181Z,37.93
2018-11-07T18:55:20.588Z,38.87
2018-11-07T18:57:48.980Z,48.50
2018-11-07T19:00:18.844Z,47.47
2018-11-07T19:02:47.815Z,44.17
2018-11-07T19:05:16.466Z,43.50
2018-11-07T19:07:45.034Z,45.13
2018-11-07T19:10:15.730Z,45.07
2018-11-07T19:12:44.601Z,53.23
2018-11-07T19:15:14.038Z,46.50
2018-11-07T19:17:43.410Z,55.53
2018-11-07T19:20:12.904Z,56.37
2018-11-07T19:22:41.394Z,51.87
2018-11-07T19:25:12.235Z,51.67
2018-11-07T19:27:40.613Z,53.60
2018-11-07T19:30:12.782Z,51.07
2018-11-07T19:32:41.420Z,45.70
2018-11-07T19:35:11.354Z,40.17
2018-11-07T19:37:39.867Z,41.27
2018-11-07T19:40:10.242Z,37.53
2018-11-07T19:42:40.621Z,34.73
2018-11-07T19:45:11.782Z,38.60
2018-11-07T19:47:40.338Z,41.57
2018-11-07T19:50:10.282Z,44.17
2018-11-07T19:52:38.686Z,44.90
2018-11-07T19:55:09.494Z,38.77
2018-11-07T19:57:37.904Z,41.97
2018-11-07T20:00:09.746Z,39.50
2018-11-07T20:02:38.110Z,44.10
2018-11-07T20:05:07.038Z,44.33
2018-11-07T20:07:35.886Z,43.47
2018-11-07T20:10:04.323Z,33.50
2018-11-07T20:12:32.759Z,44.90
2018-11-07T20:15:01.147Z,44.17
2018-11-07T20:17:29.514Z,40.10
2018-11-07T20:19:57.910Z,39.50
2018-11-07T20:22:26.274Z,40.70
2018-11-07T20:24:54.670Z,47.73
2018-11-07T20:27:23.083Z,45.87
2018-11-07T20:29:51.570Z,41.00
2018-11-07T20:32:19.942Z,44.57
2018-11-07T20:34:48.370Z,49.43
2018-11-07T20:37:16.747Z,57.53
2018-11-07T20:39:45.290Z,44.77
2018-11-07T20:42:13.692Z,42.57
2018-11-07T20:44:42.298Z,57.73
2018-11-07T20:47:10.903Z,43.40
2018-11-07T20:49:39.283Z,45.47
2018-11-07T20:52:07.674Z,44.63
2018-11-07T20:54:36.288Z,41.10
2018-11-07T20:57:04.651Z,39.60
2018-11-07T20:59:33.022Z,41.17
2018-11-07T21:02:01.590Z,35.70
2018-11-07T21:04:30.085Z,36.10
2018-11-07T21:06:58.480Z,38.87
2018-11-07T21:09:26.854Z,36.50
2018-11-07T21:11:55.415Z,39.80
2018-11-07T21:14:23.785Z,40.00
2018-11-07T21:16:52.213Z,37.80
2018-11-07T21:19:20.583Z,40.23
2018-11-07T21:21:48.981Z,41.57
2018-11-07T21:24:17.355Z,42.27
2018-11-07T21:26:45.786Z,42.17
2018-11-07T21:29:14.166Z,43.50
2018-11-07T21:31:42.558Z,42.47
2018-11-07T21:34:10.930Z,40.47
2018-11-07T21:36:39.319Z,39.73
2018-11-07T21:39:09.822Z,39.87
2018-11-07T21:41:38.427Z,39.83
2018-11-07T21:44:06.805Z,43.27
2018-11-07T21:46:35.206Z,44.47
2018-11-07T21:49:03.578Z,44.90
2018-11-07T21:51:31.983Z,43.50
2018-11-07T21:54:00.371Z,44.60
2018-11-07T21:56:28.769Z,43.73
2018-11-07T21:58:57.210Z,45.43
2018-11-07T22:01:25.605Z,43.10
2018-11-07T22:03:53.986Z,45.87
2018-11-07T22:06:22.378Z,45.10
2018-11-07T22:08:50.754Z,42.07
2018-11-07T22:11:19.153Z,39.87
2018-11-07T22:13:47.518Z,40.30
2018-11-07T22:16:15.909Z,38.33
2018-11-07T22:18:44.278Z,40.10
2018-11-07T22:21:12.676Z,42.90
2018-11-07T22:23:41.085Z,39.17
2018-11-07T22:26:09.502Z,43.17
2018-11-07T22:28:37.879Z,47.13
2018-11-07T22:31:06.843Z,38.10
2018-11-07T22:33:35.223Z,36.43
2018-11-07T22:36:03.602Z,36.07
2018-11-07T22:38:31.998Z,36.20
2018-11-07T22:41:00.378Z,36.07
2018-11-07T22:43:28.799Z,36.20
2018-11-07T22:45:57.170Z,35.97
2018-11-07T22:48:25.574Z,38.00
2018-11-07T22:50:53.954Z,37.27
2018-11-07T22:53:22.350Z,42.30
2018-11-07T22:55:50.730Z,36.70
2018-11-07T22:58:19.134Z,36.20
2018-11-07T23:00:52.954Z,35.13
2018-11-07T23:03:21.347Z,39.77
2018-11-07T23:05:49.726Z,40.80
2018-11-07T23:08:18.118Z,42.93
2018-11-07T23:10:46.490Z,45.80
2018-11-07T23:13:14.883Z,38.03
2018-11-07T23:15:49.221Z,41.37
2018-11-07T23:18:19.058Z,40.67
2018-11-07T23:20:47.442Z,37.03
2018-11-07T23:23:16.434Z,34.20
2018-11-07T23:25:45.198Z,48.57
2018-11-07T23:28:13.595Z,42.40
2018-11-07T23:30:41.966Z,39.07
2018-11-07T23:33:10.402Z,36.87
2018-11-07T23:35:38.923Z,44.67
2018-11-07T23:38:07.323Z,43.93
2018-11-07T23:40:35.698Z,34.70
2018-11-07T23:43:04.119Z,35.93
2018-11-07T23:45:32.491Z,38.73
2018-11-07T23:48:00.892Z,48.57
2018-11-07T23:50:29.266Z,39.50
2018-11-07T23:52:58.285Z,48.40
2018-11-07T23:55:26.666Z,48.53
2018-11-07T23:57:55.099Z,35.57
